createdAt,value
2022-08-01T00:01:32.613Z,1.60
2022-08-01T00:04:01.046Z,2.30
2022-08-01T00:06:29.445Z,2.30
2022-08-01T00:08:57.961Z,2.20
2022-08-01T00:11:26.208Z,2.10
2022-08-01T00:13:54.760Z,1.83
2022-08-01T00:16:24.480Z,2.00
2022-08-01T00:18:54.094Z,1.90
2022-08-01T00:21:22.600Z,1.80
2022-08-01T00:23:51.095Z,1.97
2022-08-01T00:26:19.551Z,2.47
2022-08-01T00:28:47.861Z,2.37
2022-08-01T00:31:16.102Z,2.00
2022-08-01T00:33:44.346Z,2.30
2022-08-01T00:36:13.969Z,2.10
2022-08-01T00:38:42.301Z,3.33
2022-08-01T00:41:10.529Z,2.10
2022-08-01T00:43:38.822Z,2.47
2022-08-01T00:46:07.057Z,2.20
2022-08-01T00:48:35.392Z,1.90
2022-08-01T00:51:03.993Z,2.23
2022-08-01T00:53:51.436Z,2.20
2022-08-01T00:56:21.340Z,2.30
2022-08-01T00:58:49.769Z,2.37
2022-08-01T01:01:18.743Z,2.60
2022-08-01T01:04:02.811Z,2.20
2022-08-01T01:06:42.883Z,2.53
2022-08-01T01:09:28.843Z,1.70
2022-08-01T01:12:05.123Z,2.50
2022-08-01T01:14:35.559Z,2.23
2022-08-01T01:17:05.253Z,3.00
2022-08-01T01:19:36.033Z,2.43
2022-08-01T01:22:20.170Z,2.20
2022-08-01T01:24:54.705Z,2.40
2022-08-01T01:27:27.025Z,2.83
2022-08-01T01:30:00.963Z,3.10
2022-08-01T01:32:34.834Z,2.80
2022-08-01T01:35:04.606Z,2.83
2022-08-01T01:37:35.033Z,2.60
2022-08-01T01:40:04.827Z,2.40
2022-08-01T01:42:33.425Z,2.80
2022-08-01T01:45:03.298Z,2.63
2022-08-01T01:47:32.352Z,2.70
2022-08-01T01:50:01.850Z,3.17
2022-08-01T01:52:30.657Z,2.90
2022-08-01T01:54:59.647Z,2.63
2022-08-01T01:57:28.712Z,2.00
2022-08-01T01:59:57.202Z,3.03
2022-08-01T02:02:27.191Z,2.60
2022-08-01T02:04:56.158Z,2.30
2022-08-01T02:07:26.773Z,2.73
2022-08-01T02:09:55.822Z,2.57
2022-08-01T02:12:24.233Z,2.40
2022-08-01T02:14:54.329Z,2.27
2022-08-01T02:17:23.630Z,2.50
2022-08-01T02:19:53.446Z,3.03
2022-08-01T02:22:24.046Z,2.80
2022-08-01T02:24:53.055Z,2.93
2022-08-01T02:27:26.641Z,3.00
2022-08-01T02:29:56.005Z,2.80
2022-08-01T02:32:27.195Z,2.60
2022-08-01T02:34:58.713Z,2.57
2022-08-01T02:37:29.258Z,2.87
2022-08-01T02:39:58.004Z,2.37
2022-08-01T02:42:26.853Z,2.53
2022-08-01T02:44:56.123Z,2.60
2022-08-01T02:47:25.386Z,3.27
2022-08-01T02:49:54.871Z,2.60
2022-08-01T02:52:26.096Z,2.93
2022-08-01T02:54:56.078Z,2.73
2022-08-01T02:57:27.286Z,2.63
2022-08-01T03:00:02.299Z,2.60
2022-08-01T03:02:32.385Z,2.53
2022-08-01T03:05:01.296Z,3.00
2022-08-01T03:07:34.715Z,2.20
2022-08-01T03:10:09.341Z,3.03
2022-08-01T03:12:37.939Z,3.03
2022-08-01T03:15:07.945Z,3.07
2022-08-01T03:17:39.672Z,4.93
2022-08-01T03:20:09.686Z,2.90
2022-08-01T03:22:40.854Z,3.23
2022-08-01T03:25:09.912Z,2.90
2022-08-01T03:27:39.161Z,2.90
2022-08-01T03:30:08.769Z,2.70
2022-08-01T03:32:37.222Z,3.13
2022-08-01T03:35:05.944Z,3.30
2022-08-01T03:37:37.729Z,3.60
2022-08-01T03:40:10.343Z,2.87
2022-08-01T03:42:40.025Z,3.10
2022-08-01T03:45:13.344Z,3.13
2022-08-01T03:47:44.837Z,3.40
2022-08-01T03:50:14.662Z,3.30
2022-08-01T03:52:44.878Z,3.70
2022-08-01T03:55:15.669Z,4.10
2022-08-01T03:57:45.004Z,4.43
2022-08-01T04:00:13.938Z,3.17
2022-08-01T04:02:42.326Z,3.50
2022-08-01T04:05:11.248Z,3.40
2022-08-01T04:07:40.159Z,3.43
2022-08-01T04:10:09.082Z,3.80
2022-08-01T04:12:38.734Z,3.23
2022-08-01T04:15:07.864Z,3.50
2022-08-01T04:17:36.116Z,4.20
2022-08-01T04:20:04.753Z,4.20
2022-08-01T04:22:37.244Z,3.50
2022-08-01T04:25:07.649Z,3.97
2022-08-01T04:27:50.052Z,6.17
2022-08-01T04:30:23.749Z,2.67
2022-08-01T04:32:52.965Z,4.53
2022-08-01T04:36:02.739Z,3.73
2022-08-01T04:38:11.520Z,2.43
2022-08-01T04:40:40.593Z,4.57
2022-08-01T04:43:09.384Z,3.70
2022-08-01T04:45:39.437Z,3.03
2022-08-01T04:48:08.593Z,2.40
2022-08-01T04:50:37.558Z,2.60
2022-08-01T04:53:06.113Z,3.27
2022-08-01T04:55:34.619Z,5.17
2022-08-01T04:58:05.304Z,6.47
2022-08-01T05:00:34.958Z,4.97
2022-08-01T05:03:04.631Z,7.37
2022-08-01T05:05:32.968Z,7.77
2022-08-01T05:08:01.367Z,4.43
2022-08-01T05:10:32.853Z,6.03
2022-08-01T05:13:01.190Z,7.57
2022-08-01T05:15:29.439Z,3.37
2022-08-01T05:17:57.802Z,3.67
2022-08-01T05:20:27.430Z,7.50
2022-08-01T05:22:55.714Z,4.90
2022-08-01T05:25:57.075Z,5.07
2022-08-01T05:28:19.054Z,6.43
2022-08-01T05:30:47.686Z,6.23
2022-08-01T05:33:15.961Z,6.53
2022-08-01T05:35:48.365Z,3.73
2022-08-01T05:38:17.665Z,3.83
2022-08-01T05:40:46.028Z,3.50
2022-08-01T05:43:14.316Z,6.70
2022-08-01T05:45:42.826Z,4.73
2022-08-01T05:48:11.095Z,7.00
2022-08-01T05:50:39.383Z,4.77
2022-08-01T05:53:09.057Z,7.27
2022-08-01T05:55:37.516Z,7.47
2022-08-01T05:58:05.908Z,6.47
2022-08-01T06:00:34.457Z,8.70
2022-08-01T06:03:02.758Z,7.97
2022-08-01T06:05:31.019Z,8.17
2022-08-01T06:07:59.659Z,9.43
2022-08-01T06:10:29.300Z,7.80
2022-08-01T06:12:57.622Z,5.07
2022-08-01T06:15:25.870Z,5.77
2022-08-01T06:17:54.333Z,7.70
2022-08-01T06:20:22.698Z,10.23
2022-08-01T06:22:52.766Z,10.00
2022-08-01T06:25:21.553Z,8.80
2022-08-01T06:27:51.595Z,6.57
2022-08-01T06:30:20.050Z,6.73
2022-08-01T06:32:48.504Z,9.50
2022-08-01T06:35:16.793Z,7.07
2022-08-01T06:37:45.878Z,10.30
2022-08-01T06:40:17.100Z,9.90
2022-08-01T06:42:46.650Z,9.00
2022-08-01T06:45:16.670Z,5.00
2022-08-01T06:47:45.539Z,7.30
2022-08-01T06:50:27.084Z,5.27
2022-08-01T06:52:55.358Z,10.30
2022-08-01T06:55:23.740Z,7.83
2022-08-01T06:57:52.862Z,6.20
2022-08-01T07:00:23.692Z,5.00
2022-08-01T07:02:52.386Z,8.67
2022-08-01T07:05:20.732Z,4.57
2022-08-01T07:07:49.047Z,7.40
2022-08-01T07:10:17.319Z,7.47
2022-08-01T07:12:45.678Z,7.87
2022-08-01T07:15:13.954Z,8.60
2022-08-01T07:17:44.688Z,9.40
2022-08-01T07:20:16.535Z,8.33
2022-08-01T07:22:45.425Z,9.50
2022-08-01T07:25:15.894Z,8.43
2022-08-01T07:27:44.196Z,10.60
2022-08-01T07:30:12.896Z,8.60
2022-08-01T07:32:41.473Z,6.67
2022-08-01T07:35:11.729Z,9.40
2022-08-01T07:37:48.938Z,9.90
2022-08-01T07:40:18.553Z,9.17
2022-08-01T07:42:46.833Z,11.33
2022-08-01T07:45:15.296Z,11.37
2022-08-01T07:47:44.114Z,11.00
2022-08-01T07:50:14.668Z,9.53
2022-08-01T07:52:42.947Z,9.40
2022-08-01T07:55:11.982Z,9.20
2022-08-01T07:57:45.204Z,10.67
2022-08-01T08:00:14.323Z,9.90
2022-08-01T08:02:42.623Z,11.03
2022-08-01T08:05:11.822Z,8.67
2022-08-01T08:07:41.697Z,8.60
2022-08-01T08:10:10.457Z,9.73
2022-08-01T08:12:38.762Z,9.50
2022-08-01T08:15:07.692Z,10.60
2022-08-01T08:17:36.858Z,11.73
2022-08-01T08:20:08.993Z,11.07
2022-08-01T08:22:37.700Z,6.67
2022-08-01T08:25:07.988Z,9.53
2022-08-01T08:27:37.269Z,10.30
2022-08-01T08:30:08.313Z,10.47
2022-08-01T08:32:37.847Z,9.77
2022-08-01T08:35:06.888Z,8.47
2022-08-01T08:37:39.054Z,9.87
2022-08-01T08:40:13.297Z,9.80
2022-08-01T08:42:43.033Z,9.43
2022-08-01T08:45:12.557Z,8.50
2022-08-01T08:47:41.487Z,9.60
2022-08-01T08:50:10.477Z,8.87
2022-08-01T08:52:41.200Z,9.60
2022-08-01T08:55:11.805Z,8.10
2022-08-01T08:57:42.800Z,10.17
2022-08-01T09:00:12.785Z,10.17
2022-08-01T09:02:43.472Z,10.03
2022-08-01T09:05:15.055Z,7.97
2022-08-01T09:07:47.487Z,7.67
2022-08-01T09:10:15.809Z,7.10
2022-08-01T09:13:04.373Z,7.47
2022-08-01T09:15:40.648Z,8.47
2022-08-01T09:18:08.984Z,8.00
2022-08-01T09:20:37.284Z,8.40
2022-08-01T09:23:05.860Z,7.43
2022-08-01T09:25:52.580Z,7.70
2022-08-01T09:28:29.401Z,5.00
2022-08-01T09:30:58.688Z,6.17
2022-08-01T09:33:27.067Z,6.80
2022-08-01T09:35:57.380Z,8.13
2022-08-01T09:38:28.094Z,9.00
2022-08-01T09:40:58.434Z,7.40
2022-08-01T09:43:29.222Z,8.13
2022-08-01T09:45:58.181Z,5.63
2022-08-01T09:48:28.348Z,5.30
2022-08-01T09:51:00.892Z,6.20
2022-08-01T09:53:43.486Z,5.13
2022-08-01T09:56:19.853Z,5.90
2022-08-01T09:59:02.115Z,7.73
2022-08-01T10:01:37.119Z,5.83
2022-08-01T10:04:09.844Z,10.50
2022-08-01T10:06:41.738Z,5.07
2022-08-01T10:09:10.264Z,5.70
2022-08-01T10:11:40.021Z,5.60
2022-08-01T10:14:10.362Z,5.70
2022-08-01T10:16:39.641Z,6.07
2022-08-01T10:19:14.561Z,5.60
2022-08-01T10:21:58.210Z,5.63
2022-08-01T10:24:27.843Z,5.40
2022-08-01T10:27:00.706Z,7.30
2022-08-01T10:29:46.098Z,7.40
2022-08-01T10:32:15.281Z,8.00
2022-08-01T10:34:45.037Z,7.30
2022-08-01T10:37:14.934Z,5.83
2022-08-01T10:39:44.725Z,6.87
2022-08-01T10:42:15.647Z,5.60
2022-08-01T10:44:49.020Z,4.77
2022-08-01T10:47:22.954Z,7.83
2022-08-01T10:49:59.305Z,6.97
2022-08-01T10:52:28.565Z,4.83
2022-08-01T10:55:04.368Z,5.00
2022-08-01T10:57:43.906Z,3.63
2022-08-01T11:00:23.432Z,5.27
2022-08-01T11:03:01.514Z,5.20
2022-08-01T11:05:31.020Z,5.77
2022-08-01T11:08:04.061Z,5.90
2022-08-01T11:10:36.579Z,5.60
2022-08-01T11:13:08.579Z,7.70
2022-08-01T11:15:49.973Z,6.10
2022-08-01T11:18:32.162Z,5.67
2022-08-01T11:21:59.016Z,7.50
2022-08-01T11:23:50.575Z,7.07
2022-08-01T11:26:29.261Z,5.90
2022-08-01T11:29:21.048Z,5.80
2022-08-01T11:31:53.310Z,6.23
2022-08-01T11:34:21.886Z,5.37
2022-08-01T11:36:59.516Z,5.50
2022-08-01T11:39:28.099Z,4.17
2022-08-01T11:41:58.910Z,5.40
2022-08-01T11:44:30.138Z,5.67
2022-08-01T11:47:02.296Z,5.70
2022-08-01T11:49:50.605Z,4.87
2022-08-01T11:52:20.643Z,4.03
2022-08-01T11:54:50.141Z,5.10
2022-08-01T11:57:23.270Z,4.90
2022-08-01T12:00:03.538Z,4.70
2022-08-01T12:02:35.794Z,4.13
2022-08-01T12:05:05.406Z,5.83
2022-08-01T12:07:37.536Z,6.40
2022-08-01T12:10:07.433Z,5.90
2022-08-01T12:12:36.437Z,5.00
2022-08-01T12:15:07.329Z,4.20
2022-08-01T12:17:43.607Z,4.17
2022-08-01T12:20:25.530Z,4.17
2022-08-01T12:22:56.068Z,6.67
2022-08-01T12:25:24.433Z,5.40
2022-08-01T12:27:56.493Z,5.53
2022-08-01T12:30:26.081Z,3.80
2022-08-01T12:32:56.890Z,3.93
2022-08-01T12:35:26.498Z,5.00
2022-08-01T12:37:55.502Z,5.60
2022-08-01T12:40:24.558Z,4.07
2022-08-01T12:42:53.596Z,4.20
2022-08-01T12:45:23.181Z,5.30
2022-08-01T12:47:52.056Z,5.40
2022-08-01T12:50:22.849Z,4.40
2022-08-01T12:52:51.283Z,4.63
2022-08-01T12:55:21.010Z,4.90
2022-08-01T12:57:51.039Z,4.50
2022-08-01T13:00:21.879Z,5.63
2022-08-01T13:02:50.765Z,5.10
2022-08-01T13:05:19.540Z,5.50
2022-08-01T13:07:50.660Z,5.40
2022-08-01T13:10:27.672Z,4.33
2022-08-01T13:12:57.111Z,5.03
2022-08-01T13:15:31.999Z,4.43
2022-08-01T13:18:00.749Z,4.77
2022-08-01T13:20:31.121Z,5.50
2022-08-01T13:23:15.121Z,6.53
2022-08-01T13:25:51.255Z,5.40
2022-08-01T13:28:20.157Z,5.17
2022-08-01T13:30:54.895Z,4.90
2022-08-01T13:33:23.196Z,5.50
2022-08-01T13:35:52.672Z,4.10
2022-08-01T13:38:42.735Z,4.90
2022-08-01T13:41:11.216Z,4.43
2022-08-01T13:43:58.267Z,4.40
2022-08-01T13:46:29.611Z,4.00
2022-08-01T13:49:06.635Z,3.97
2022-08-01T13:51:44.635Z,3.50
2022-08-01T13:54:14.239Z,3.80
2022-08-01T13:56:42.615Z,4.40
2022-08-01T13:59:10.952Z,3.90
2022-08-01T14:01:39.256Z,4.07
2022-08-01T14:04:07.673Z,4.30
2022-08-01T14:06:36.858Z,3.73
2022-08-01T14:09:18.236Z,3.60
2022-08-01T14:11:55.439Z,2.70
2022-08-01T14:14:23.705Z,4.37
2022-08-01T14:16:52.161Z,3.73
2022-08-01T14:19:37.576Z,3.63
2022-08-01T14:22:07.625Z,3.87
2022-08-01T14:24:39.270Z,3.80
2022-08-01T14:27:10.929Z,4.10
2022-08-01T14:30:02.420Z,4.60
2022-08-01T14:32:28.808Z,3.47
2022-08-01T14:34:57.686Z,3.97
2022-08-01T14:37:28.600Z,3.90
2022-08-01T14:39:57.967Z,4.93
2022-08-01T14:42:28.607Z,4.17
2022-08-01T14:44:56.883Z,3.60
2022-08-01T14:47:25.280Z,3.63
2022-08-01T14:49:53.652Z,3.53
2022-08-01T14:52:22.402Z,3.70
2022-08-01T14:54:50.708Z,3.60
2022-08-01T14:57:19.878Z,3.40
2022-08-01T14:59:49.633Z,3.73
2022-08-01T15:02:18.346Z,4.20
2022-08-01T15:04:46.875Z,4.00
2022-08-01T15:07:15.524Z,3.97
2022-08-01T15:09:44.255Z,3.80
2022-08-01T15:12:12.610Z,3.80
2022-08-01T15:14:49.824Z,3.90
2022-08-01T15:17:19.789Z,3.43
2022-08-01T15:19:48.574Z,3.00
2022-08-01T15:22:16.869Z,4.43
2022-08-01T15:24:45.712Z,3.33
2022-08-01T15:27:13.998Z,3.40
2022-08-01T15:29:42.693Z,3.50
2022-08-01T15:32:11.534Z,3.23
2022-08-01T15:34:41.606Z,3.40
2022-08-01T15:37:10.808Z,4.10
2022-08-01T15:39:39.078Z,3.60
2022-08-01T15:42:09.003Z,3.70
2022-08-01T15:44:37.438Z,2.80
2022-08-01T15:47:06.358Z,3.70
2022-08-01T15:49:36.934Z,3.47
2022-08-01T15:52:07.627Z,3.50
2022-08-01T15:54:49.792Z,3.00
2022-08-01T15:57:18.045Z,3.60
2022-08-01T15:59:46.395Z,3.53
2022-08-01T16:02:15.616Z,3.97
2022-08-01T16:04:44.007Z,2.90
2022-08-01T16:07:13.937Z,3.00
2022-08-01T16:09:42.219Z,3.20
2022-08-01T16:12:10.998Z,3.63
2022-08-01T16:14:39.389Z,3.17
2022-08-01T16:17:07.673Z,3.10
2022-08-01T16:19:36.011Z,3.87
2022-08-01T16:22:04.797Z,3.10
2022-08-01T16:24:36.300Z,3.30
2022-08-01T16:27:04.980Z,3.10
2022-08-01T16:29:34.263Z,2.93
2022-08-01T16:32:27.886Z,2.73
2022-08-01T16:34:51.567Z,3.40
2022-08-01T16:37:19.957Z,2.60
2022-08-01T16:39:49.771Z,2.77
2022-08-01T16:42:18.145Z,3.00
2022-08-01T16:44:46.630Z,2.63
2022-08-01T16:47:18.301Z,2.40
2022-08-01T16:49:47.233Z,2.60
2022-08-01T16:52:15.665Z,2.60
2022-08-01T16:54:43.909Z,3.07
2022-08-01T16:57:14.193Z,3.10
2022-08-01T16:59:42.965Z,2.77
2022-08-01T17:02:11.987Z,3.37
2022-08-01T17:04:40.598Z,3.07
2022-08-01T17:07:09.462Z,3.17
2022-08-01T17:09:42.968Z,3.20
2022-08-01T17:12:13.091Z,2.40
2022-08-01T17:14:44.123Z,3.00
2022-08-01T17:17:14.982Z,3.10
2022-08-01T17:19:43.279Z,2.67
2022-08-01T17:22:11.651Z,3.77
2022-08-01T17:24:39.925Z,2.80
2022-08-01T17:27:12.564Z,2.90
2022-08-01T17:29:44.026Z,3.10
2022-08-01T17:32:14.944Z,2.77
2022-08-01T17:34:43.545Z,2.53
2022-08-01T17:37:11.905Z,2.77
2022-08-01T17:39:40.436Z,2.70
2022-08-01T17:42:09.110Z,2.53
2022-08-01T17:44:37.491Z,2.30
2022-08-01T17:47:06.239Z,2.30
2022-08-01T17:52:29.409Z,2.47
2022-08-01T17:54:58.430Z,2.40
2022-08-01T17:57:26.914Z,2.70
2022-08-01T17:59:55.619Z,2.27
2022-08-01T18:02:23.916Z,2.40
2022-08-01T18:04:53.993Z,2.20
2022-08-01T18:07:22.742Z,2.40
2022-08-01T18:10:11.631Z,2.43
2022-08-01T18:12:40.143Z,2.57
2022-08-01T18:15:08.838Z,2.97
2022-08-01T18:17:37.277Z,2.53
2022-08-01T18:20:07.711Z,2.33
2022-08-01T18:22:35.964Z,2.53
2022-08-01T18:25:08.491Z,2.33
2022-08-01T18:28:16.469Z,2.40
2022-08-01T18:30:26.079Z,2.40
2022-08-01T18:32:55.821Z,2.50
2022-08-01T18:35:32.409Z,2.73
2022-08-01T18:38:13.830Z,2.73
2022-08-01T18:40:42.189Z,2.37
2022-08-01T18:43:10.528Z,2.63
2022-08-01T18:45:42.757Z,2.33
2022-08-01T18:48:11.589Z,2.57
2022-08-01T18:50:41.425Z,2.33
2022-08-01T18:53:10.529Z,2.57
2022-08-01T18:55:38.824Z,2.50
2022-08-01T18:58:07.090Z,2.20
2022-08-01T19:00:35.344Z,2.13
2022-08-01T19:03:04.265Z,2.87
2022-08-01T19:05:34.887Z,3.03
2022-08-01T19:08:07.831Z,2.30
2022-08-01T19:10:36.962Z,2.47
2022-08-01T19:13:05.774Z,2.50
2022-08-01T19:15:34.094Z,2.27
2022-08-01T19:18:03.055Z,2.20
2022-08-01T19:20:31.411Z,2.50
2022-08-01T19:22:59.744Z,2.70
2022-08-01T19:25:29.453Z,2.50
2022-08-01T19:27:58.122Z,2.13
2022-08-01T19:30:26.683Z,3.03
2022-08-01T19:32:56.757Z,2.43
2022-08-01T19:35:25.940Z,2.77
2022-08-01T19:37:54.548Z,2.53
2022-08-01T19:40:26.383Z,3.37
2022-08-01T19:42:58.214Z,2.83
2022-08-01T19:45:26.746Z,2.37
2022-08-01T19:47:57.605Z,2.40
2022-08-01T19:50:26.973Z,2.07
2022-08-01T19:52:57.350Z,2.77
2022-08-01T19:55:26.139Z,2.40
2022-08-01T19:58:17.200Z,3.30
2022-08-01T20:00:44.623Z,2.80
2022-08-01T20:03:15.386Z,3.00
2022-08-01T20:05:44.210Z,3.00
2022-08-01T20:08:13.498Z,3.20
2022-08-01T20:10:42.406Z,3.17
2022-08-01T20:13:11.647Z,3.30
2022-08-01T20:15:40.348Z,3.83
2022-08-01T20:18:09.932Z,3.27
2022-08-01T20:20:39.249Z,3.20
2022-08-01T20:23:17.832Z,3.03
2022-08-01T20:25:48.198Z,2.67
2022-08-01T20:28:16.983Z,3.60
2022-08-01T20:30:47.727Z,2.70
2022-08-01T20:33:17.749Z,2.10
2022-08-01T20:35:51.149Z,3.43
2022-08-01T20:38:23.214Z,3.33
2022-08-01T20:40:52.622Z,4.00
2022-08-01T20:43:22.071Z,3.70
2022-08-01T20:45:51.843Z,3.53
2022-08-01T20:48:21.555Z,3.60
2022-08-01T20:51:07.957Z,4.30
2022-08-01T20:53:40.701Z,3.90
2022-08-01T20:56:13.088Z,3.80
2022-08-01T20:58:47.936Z,3.77
2022-08-01T21:01:17.340Z,3.17
2022-08-01T21:03:51.390Z,4.00
2022-08-01T21:06:21.537Z,3.70
2022-08-01T21:08:49.928Z,4.97
2022-08-01T21:11:20.425Z,5.23
2022-08-01T21:13:50.325Z,6.67
2022-08-01T21:16:25.050Z,5.30
2022-08-01T21:21:46.045Z,4.00
2022-08-01T21:24:17.577Z,4.50
2022-08-01T21:26:46.345Z,3.67
2022-08-01T21:29:15.325Z,3.53
2022-08-01T21:31:43.898Z,5.40
2022-08-01T21:34:14.021Z,4.87
2022-08-01T21:36:45.880Z,3.60
2022-08-01T21:39:14.343Z,3.90
2022-08-01T21:42:04.785Z,4.67
2022-08-01T21:44:32.801Z,4.70
2022-08-01T21:47:01.409Z,4.30
2022-08-01T21:49:31.106Z,4.37
2022-08-01T21:52:03.930Z,4.50
2022-08-01T21:54:39.941Z,4.77
2022-08-01T21:57:12.308Z,5.53
2022-08-01T21:59:46.977Z,3.70
2022-08-01T22:02:19.616Z,4.93
2022-08-01T22:04:50.646Z,4.10
2022-08-01T22:07:19.805Z,4.00
2022-08-01T22:09:50.353Z,4.20
2022-08-01T22:12:19.127Z,4.37
2022-08-01T22:14:49.369Z,4.90
2022-08-01T22:17:20.513Z,5.27
2022-08-01T22:19:53.664Z,4.97
2022-08-01T22:22:45.383Z,4.97
2022-08-01T22:25:12.618Z,4.13
2022-08-01T22:28:05.555Z,4.80
2022-08-01T22:30:30.836Z,4.00
2022-08-01T22:33:07.587Z,4.47
2022-08-01T22:35:47.271Z,5.07
2022-08-01T22:38:15.866Z,4.67
2022-08-01T22:40:49.941Z,5.23
2022-08-01T22:43:23.025Z,4.53
2022-08-01T22:45:53.634Z,3.93
2022-08-01T22:48:25.728Z,4.33
2022-08-01T22:50:58.351Z,4.77
2022-08-01T22:53:30.395Z,4.33
2022-08-01T22:55:59.642Z,4.80
2022-08-01T22:58:31.176Z,4.57
2022-08-01T23:01:02.217Z,4.70
2022-08-01T23:03:31.702Z,4.90
2022-08-01T23:06:04.177Z,4.40
2022-08-01T23:08:33.428Z,4.60
2022-08-01T23:11:02.079Z,4.67
2022-08-01T23:13:31.194Z,4.20
2022-08-01T23:15:59.710Z,5.30
2022-08-01T23:18:28.485Z,4.50
2022-08-01T23:20:58.685Z,4.73
2022-08-01T23:23:30.640Z,4.63
2022-08-01T23:26:00.478Z,5.40
2022-08-01T23:28:29.685Z,4.37
2022-08-01T23:30:58.129Z,4.20
2022-08-01T23:33:26.532Z,4.50
2022-08-01T23:35:54.819Z,4.87
2022-08-01T23:38:23.069Z,4.30
2022-08-01T23:40:52.864Z,5.00
2022-08-01T23:43:21.196Z,4.37
2022-08-01T23:46:02.623Z,4.70
2022-08-01T23:48:33.168Z,4.73
2022-08-01T23:51:01.396Z,4.97
2022-08-01T23:53:31.205Z,4.60
2022-08-01T23:56:02.608Z,5.00
2022-08-01T23:58:31.361Z,4.63
